createdAt,value
2018-05-09T00:00:11.210Z,5.40
2018-05-09T00:05:23.832Z,4.40
2018-05-09T00:07:55.948Z,3.73
2018-05-09T00:10:24.446Z,3.53
2018-05-09T00:12:52.655Z,3.60
2018-05-09T00:15:21.118Z,4.30
2018-05-09T00:17:49.798Z,6.13
2018-05-09T00:20:18.290Z,4.97
2018-05-09T00:22:53.514Z,3.70
2018-05-09T00:25:22.412Z,4.07
2018-05-09T00:27:51.704Z,3.70
2018-05-09T00:30:20.440Z,8.97
2018-05-09T00:32:48.961Z,10.90
2018-05-09T00:35:18.234Z,5.33
2018-05-09T00:37:54.868Z,3.80
2018-05-09T00:40:26.355Z,6.03
2018-05-09T00:42:55.040Z,3.90
2018-05-09T00:45:23.500Z,3.60
2018-05-09T00:47:52.702Z,6.63
2018-05-09T00:50:21.191Z,4.47
2018-05-09T00:52:49.656Z,5.27
2018-05-09T00:55:18.426Z,4.10
2018-05-09T00:57:46.871Z,4.00
2018-05-09T01:00:15.427Z,4.90
2018-05-09T01:02:43.884Z,4.43
2018-05-09T01:05:12.374Z,4.07
2018-05-09T01:07:40.957Z,4.00
2018-05-09T01:10:13.179Z,3.27
2018-05-09T01:12:41.658Z,3.80
2018-05-09T01:15:26.753Z,3.87
2018-05-09T01:18:23.198Z,5.33
2018-05-09T01:20:51.697Z,3.63
2018-05-09T01:23:20.946Z,3.40
2018-05-09T01:25:49.398Z,3.30
2018-05-09T01:28:24.109Z,3.77
2018-05-09T01:30:52.560Z,6.70
2018-05-09T01:33:21.082Z,4.20
2018-05-09T01:35:49.307Z,4.50
2018-05-09T01:38:43.159Z,4.83
2018-05-09T01:41:11.681Z,5.07
2018-05-09T01:43:54.236Z,3.80
2018-05-09T01:46:23.539Z,3.37
2018-05-09T01:48:51.999Z,5.50
2018-05-09T01:51:20.477Z,6.83
2018-05-09T01:53:48.927Z,5.60
2018-05-09T01:56:17.458Z,3.80
2018-05-09T01:58:46.733Z,4.83
2018-05-09T02:01:15.172Z,3.47
2018-05-09T02:03:43.630Z,3.73
2018-05-09T02:06:12.233Z,4.00
2018-05-09T02:08:47.833Z,3.97
2018-05-09T02:11:16.302Z,8.50
2018-05-09T02:13:44.969Z,4.80
2018-05-09T02:16:13.448Z,5.40
2018-05-09T02:18:41.881Z,5.17
2018-05-09T02:21:12.070Z,5.33
2018-05-09T02:23:52.991Z,6.97
2018-05-09T02:26:23.239Z,7.23
2018-05-09T02:28:51.889Z,4.70
2018-05-09T02:31:20.336Z,4.67
2018-05-09T02:33:48.822Z,5.10
2018-05-09T02:36:30.386Z,6.30
2018-05-09T02:38:58.874Z,7.07
2018-05-09T02:41:52.262Z,5.43
2018-05-09T02:44:21.505Z,5.97
2018-05-09T02:46:50.060Z,4.50
2018-05-09T02:49:18.523Z,4.00
2018-05-09T02:51:47.966Z,5.70
2018-05-09T02:57:01.457Z,8.03
2018-05-09T02:59:29.927Z,5.30
2018-05-09T03:01:58.142Z,4.03
2018-05-09T03:07:09.613Z,6.53
2018-05-09T03:09:38.097Z,5.20
2018-05-09T03:12:06.567Z,5.70
2018-05-09T03:14:35.774Z,5.17
2018-05-09T03:17:22.334Z,6.13
2018-05-09T03:19:50.819Z,5.00
2018-05-09T03:22:19.320Z,5.17
2018-05-09T03:24:47.761Z,5.13
2018-05-09T03:27:19.417Z,4.50
2018-05-09T03:29:48.185Z,4.63
2018-05-09T03:32:17.642Z,4.70
2018-05-09T03:34:45.754Z,4.73
2018-05-09T03:37:14.245Z,5.47
2018-05-09T03:39:42.798Z,10.23
2018-05-09T03:44:54.874Z,5.53
2018-05-09T03:50:00.083Z,6.30
2018-05-09T03:55:17.564Z,8.73
2018-05-09T03:57:46.058Z,6.40
2018-05-09T04:03:30.835Z,5.67
2018-05-09T04:06:11.209Z,3.87
2018-05-09T04:08:51.514Z,4.10
2018-05-09T04:11:20.001Z,5.60
2018-05-09T04:13:48.448Z,4.30
2018-05-09T04:16:18.940Z,4.80
2018-05-09T04:18:54.551Z,5.97
2018-05-09T04:21:25.084Z,6.27
2018-05-09T04:23:53.577Z,6.43
2018-05-09T04:26:24.701Z,8.00
2018-05-09T04:28:54.140Z,8.80
2018-05-09T04:34:31.456Z,6.63
2018-05-09T04:37:24.074Z,6.30
2018-05-09T04:42:35.681Z,7.13
2018-05-09T04:45:09.584Z,5.47
2018-05-09T04:47:39.651Z,5.47
2018-05-09T04:50:08.346Z,7.83
2018-05-09T04:52:36.828Z,7.70
2018-05-09T04:55:05.263Z,6.03
2018-05-09T04:57:34.469Z,10.47
2018-05-09T05:00:02.917Z,4.47
2018-05-09T05:02:31.471Z,7.27
2018-05-09T05:05:00.300Z,5.30
2018-05-09T05:07:28.772Z,5.13
2018-05-09T05:09:57.245Z,6.23
2018-05-09T05:12:26.571Z,7.13
2018-05-09T05:14:55.062Z,5.27
2018-05-09T05:17:23.534Z,4.73
2018-05-09T05:19:51.978Z,7.47
2018-05-09T05:22:42.923Z,4.63
2018-05-09T05:25:12.389Z,6.80
2018-05-09T05:27:41.087Z,18.50
2018-05-09T05:30:15.789Z,5.00
2018-05-09T05:32:44.847Z,6.67
2018-05-09T05:35:13.382Z,9.13
2018-05-09T05:37:43.811Z,5.20
2018-05-09T05:40:13.138Z,5.83
2018-05-09T05:42:41.645Z,8.10
2018-05-09T05:48:01.948Z,5.00
2018-05-09T05:50:30.771Z,7.50
2018-05-09T05:53:00.098Z,6.97
2018-05-09T05:55:28.615Z,5.70
2018-05-09T05:57:57.082Z,8.73
2018-05-09T06:00:25.516Z,7.63
2018-05-09T06:02:54.931Z,14.40
2018-05-09T06:05:23.370Z,11.00
2018-05-09T06:07:51.814Z,9.93
2018-05-09T06:10:20.530Z,9.10
2018-05-09T06:12:48.878Z,12.83
2018-05-09T06:15:18.378Z,14.50
2018-05-09T06:17:46.893Z,11.63
2018-05-09T06:20:15.386Z,13.23
2018-05-09T06:22:43.889Z,16.40
2018-05-09T06:25:12.687Z,15.07
2018-05-09T06:27:41.153Z,19.47
2018-05-09T06:30:09.679Z,17.33
2018-05-09T06:32:38.922Z,25.83
2018-05-09T06:35:07.462Z,30.03
2018-05-09T06:37:36.247Z,22.60
2018-05-09T06:40:04.130Z,24.40
2018-05-09T06:42:32.578Z,26.00
2018-05-09T06:45:01.073Z,29.53
2018-05-09T06:47:29.581Z,28.90
2018-05-09T06:49:58.129Z,33.67
2018-05-09T06:52:26.687Z,27.07
2018-05-09T06:54:59.512Z,28.60
2018-05-09T06:57:27.952Z,31.43
2018-05-09T06:59:56.452Z,35.10
2018-05-09T07:02:25.047Z,31.10
2018-05-09T07:04:53.558Z,33.90
2018-05-09T07:07:22.075Z,30.67
2018-05-09T07:09:50.807Z,32.40
2018-05-09T07:12:19.224Z,33.33
2018-05-09T07:14:47.701Z,31.03
2018-05-09T07:17:16.245Z,34.03
2018-05-09T07:19:44.743Z,33.20
2018-05-09T07:22:13.341Z,36.27
2018-05-09T07:24:41.895Z,22.17
2018-05-09T07:27:10.331Z,28.53
2018-05-09T07:29:38.909Z,27.87
2018-05-09T07:32:07.453Z,29.30
2018-05-09T07:34:36.225Z,31.07
2018-05-09T07:37:04.724Z,28.27
2018-05-09T07:39:33.193Z,30.90
2018-05-09T07:42:01.688Z,26.07
2018-05-09T07:44:30.305Z,22.20
2018-05-09T07:46:58.717Z,26.17
2018-05-09T07:49:27.262Z,27.00
2018-05-09T07:51:55.742Z,28.07
2018-05-09T07:54:24.922Z,31.90
2018-05-09T07:56:53.327Z,30.87
2018-05-09T07:59:22.767Z,29.47
2018-05-09T08:01:51.964Z,26.70
2018-05-09T08:04:20.550Z,31.50
2018-05-09T08:06:49.052Z,22.23
2018-05-09T08:09:17.457Z,25.20
2018-05-09T08:11:46.703Z,20.07
2018-05-09T08:14:15.267Z,23.93
2018-05-09T08:16:43.710Z,21.40
2018-05-09T08:19:12.174Z,20.30
2018-05-09T08:21:40.610Z,25.27
2018-05-09T08:24:09.179Z,21.83
2018-05-09T08:26:37.770Z,21.47
2018-05-09T08:29:06.288Z,18.00
2018-05-09T08:31:34.791Z,17.90
2018-05-09T08:34:03.426Z,15.27
2018-05-09T08:36:31.722Z,14.57
2018-05-09T08:39:00.124Z,12.47
2018-05-09T08:41:28.576Z,13.40
2018-05-09T08:43:57.177Z,11.40
2018-05-09T08:46:26.326Z,14.27
2018-05-09T08:48:54.810Z,15.00
2018-05-09T08:51:23.338Z,12.27
2018-05-09T08:53:51.783Z,11.97
2018-05-09T08:56:20.222Z,11.60
2018-05-09T08:58:48.667Z,10.00
2018-05-09T09:01:17.909Z,12.10
2018-05-09T09:03:46.023Z,11.60
2018-05-09T09:06:14.494Z,9.80
2018-05-09T09:08:42.980Z,6.90
2018-05-09T09:11:11.418Z,10.23
2018-05-09T09:13:39.933Z,9.50
2018-05-09T09:16:08.419Z,6.67
2018-05-09T09:18:36.967Z,15.97
2018-05-09T09:21:06.379Z,5.80
2018-05-09T09:23:34.860Z,10.83
2018-05-09T09:26:03.350Z,6.27
2018-05-09T09:28:31.804Z,8.60
2018-05-09T09:30:59.968Z,10.07
2018-05-09T09:33:28.439Z,11.40
2018-05-09T09:35:57.741Z,12.43
2018-05-09T09:38:26.138Z,6.37
2018-05-09T09:40:54.539Z,5.63
2018-05-09T09:43:23.441Z,7.70
2018-05-09T09:45:51.937Z,7.73
2018-05-09T09:48:20.376Z,6.90
2018-05-09T09:50:48.892Z,8.10
2018-05-09T09:53:18.142Z,7.03
2018-05-09T09:55:46.636Z,5.97
2018-05-09T09:58:15.064Z,5.63
2018-05-09T10:00:43.551Z,5.90
2018-05-09T10:03:12.019Z,5.40
2018-05-09T10:05:40.523Z,4.93
2018-05-09T10:08:09.071Z,5.13
2018-05-09T10:10:37.582Z,6.63
2018-05-09T10:13:06.098Z,8.30
2018-05-09T10:15:34.608Z,4.03
2018-05-09T10:18:03.073Z,4.50
2018-05-09T10:20:31.590Z,6.10
2018-05-09T10:23:00.191Z,5.30
2018-05-09T10:25:28.704Z,5.50
2018-05-09T10:27:57.226Z,9.70
2018-05-09T10:30:27.826Z,6.73
2018-05-09T10:32:56.254Z,5.10
2018-05-09T10:35:24.651Z,6.73
2018-05-09T10:37:53.090Z,6.10
2018-05-09T10:40:22.104Z,6.83
2018-05-09T10:42:50.566Z,7.13
2018-05-09T10:45:19.042Z,5.07
2018-05-09T10:47:47.520Z,4.33
2018-05-09T10:50:15.752Z,7.23
2018-05-09T10:52:44.041Z,8.40
2018-05-09T10:55:12.566Z,7.97
2018-05-09T10:57:40.965Z,4.50
2018-05-09T11:00:09.419Z,6.93
2018-05-09T11:02:37.889Z,6.00
2018-05-09T11:05:07.188Z,9.63
2018-05-09T11:07:35.811Z,6.37
2018-05-09T11:10:04.747Z,5.40
2018-05-09T11:12:33.221Z,7.47
2018-05-09T11:15:01.692Z,4.80
2018-05-09T11:17:31.041Z,6.00
2018-05-09T11:19:59.625Z,5.63
2018-05-09T11:22:28.143Z,4.97
2018-05-09T11:27:29.262Z,6.00
2018-05-09T11:29:57.891Z,6.30
2018-05-09T11:32:26.368Z,10.27
2018-05-09T11:34:54.779Z,6.73
2018-05-09T11:37:23.330Z,9.30
2018-05-09T11:39:51.972Z,6.60
2018-05-09T11:42:20.406Z,6.70
2018-05-09T11:44:48.914Z,5.40
2018-05-09T11:47:18.271Z,7.17
2018-05-09T11:49:47.559Z,8.47
2018-05-09T11:52:16.107Z,5.47
2018-05-09T11:54:44.706Z,7.30
2018-05-09T11:57:13.198Z,4.63
2018-05-09T11:59:41.716Z,7.33
2018-05-09T12:02:10.131Z,7.43
2018-05-09T12:04:38.817Z,4.33
2018-05-09T12:07:07.316Z,7.07
2018-05-09T12:09:35.807Z,11.53
2018-05-09T12:12:04.284Z,6.87
2018-05-09T12:14:32.770Z,5.30
2018-05-09T12:17:01.190Z,6.47
2018-05-09T12:19:29.646Z,5.97
2018-05-09T12:21:58.100Z,6.30
2018-05-09T12:24:26.620Z,6.10
2018-05-09T12:26:55.176Z,6.07
2018-05-09T12:29:23.690Z,8.40
2018-05-09T12:31:53.305Z,5.10
2018-05-09T12:34:22.542Z,8.23
2018-05-09T12:36:51.045Z,6.20
2018-05-09T12:39:19.534Z,9.03
2018-05-09T12:41:47.980Z,6.13
2018-05-09T12:44:16.745Z,8.03
2018-05-09T12:46:45.149Z,12.93
2018-05-09T12:49:13.622Z,5.50
2018-05-09T12:51:42.138Z,4.73
2018-05-09T12:54:10.606Z,5.03
2018-05-09T12:56:39.128Z,10.70
2018-05-09T12:59:07.599Z,6.20
2018-05-09T13:01:35.991Z,7.73
2018-05-09T13:04:06.252Z,6.00
2018-05-09T13:06:34.815Z,4.77
2018-05-09T13:09:03.403Z,5.33
2018-05-09T13:11:31.838Z,5.33
2018-05-09T13:14:00.310Z,9.53
2018-05-09T13:16:28.731Z,4.23
2018-05-09T13:18:57.190Z,5.37
2018-05-09T13:21:25.664Z,6.90
2018-05-09T13:23:54.902Z,9.33
2018-05-09T13:26:23.761Z,5.80
2018-05-09T13:28:52.127Z,9.20
2018-05-09T13:31:20.586Z,6.60
2018-05-09T13:33:49.158Z,6.53
2018-05-09T13:36:17.629Z,5.50
2018-05-09T13:38:46.109Z,5.70
2018-05-09T13:41:15.548Z,9.20
2018-05-09T13:43:44.755Z,5.90
2018-05-09T13:46:13.252Z,6.90
2018-05-09T13:48:41.690Z,6.33
2018-05-09T13:51:10.622Z,6.17
2018-05-09T13:53:39.122Z,6.73
2018-05-09T13:56:07.598Z,5.73
2018-05-09T13:58:36.142Z,6.73
2018-05-09T14:01:04.574Z,5.93
2018-05-09T14:03:33.049Z,7.53
2018-05-09T14:06:01.515Z,5.10
2018-05-09T14:08:30.772Z,5.93
2018-05-09T14:11:02.698Z,9.40
2018-05-09T14:13:30.922Z,5.73
2018-05-09T14:16:00.640Z,6.83
2018-05-09T14:18:35.551Z,10.50
2018-05-09T14:21:05.132Z,5.67
2018-05-09T14:23:34.338Z,8.97
2018-05-09T14:26:02.762Z,11.27
2018-05-09T14:28:31.194Z,7.20
2018-05-09T14:31:00.402Z,6.53
2018-05-09T14:33:33.578Z,5.80
2018-05-09T14:36:03.069Z,6.80
2018-05-09T14:38:31.558Z,10.80
2018-05-09T14:41:00.054Z,5.90
2018-05-09T14:43:28.595Z,6.17
2018-05-09T14:45:57.186Z,9.37
2018-05-09T14:48:25.659Z,6.40
2018-05-09T14:50:54.157Z,7.33
2018-05-09T14:53:22.655Z,7.43
2018-05-09T14:55:51.192Z,11.80
2018-05-09T14:58:19.661Z,10.03
2018-05-09T15:00:48.142Z,6.03
2018-05-09T15:03:16.648Z,5.60
2018-05-09T15:05:45.883Z,6.87
2018-05-09T15:08:14.411Z,5.20
2018-05-09T15:10:42.886Z,6.70
2018-05-09T15:13:11.353Z,5.70
2018-05-09T15:15:40.651Z,9.17
2018-05-09T15:18:09.964Z,8.23
2018-05-09T15:20:39.177Z,10.03
2018-05-09T15:23:07.618Z,11.23
2018-05-09T15:25:36.098Z,8.07
2018-05-09T15:28:04.589Z,11.70
2018-05-09T15:30:34.028Z,6.43
2018-05-09T15:33:02.509Z,5.97
2018-05-09T15:35:30.983Z,11.23
2018-05-09T15:38:00.228Z,7.90
2018-05-09T15:40:31.092Z,8.77
2018-05-09T15:42:59.822Z,7.37
2018-05-09T15:45:28.322Z,16.50
2018-05-09T15:47:57.535Z,6.57
2018-05-09T15:50:26.036Z,6.07
2018-05-09T15:52:54.542Z,7.30
2018-05-09T15:55:23.013Z,6.17
2018-05-09T15:57:51.507Z,6.43
2018-05-09T16:00:19.735Z,9.07
2018-05-09T16:02:48.242Z,10.27
2018-05-09T16:05:17.654Z,5.77
2018-05-09T16:07:46.064Z,5.73
2018-05-09T16:10:14.538Z,9.20
2018-05-09T16:12:43.298Z,6.67
2018-05-09T16:15:12.453Z,7.10
2018-05-09T16:17:40.850Z,9.63
2018-05-09T16:20:09.362Z,7.80
2018-05-09T16:22:37.781Z,12.77
2018-05-09T16:25:06.274Z,7.00
2018-05-09T16:27:34.734Z,8.00
2018-05-09T16:30:03.254Z,14.20
2018-05-09T16:32:31.726Z,6.10
2018-05-09T16:35:01.290Z,5.80
2018-05-09T16:37:29.774Z,7.83
2018-05-09T16:39:58.660Z,8.70
2018-05-09T16:42:27.239Z,8.50
2018-05-09T16:44:55.706Z,9.43
2018-05-09T16:47:24.244Z,6.20
2018-05-09T16:49:52.765Z,8.43
2018-05-09T16:52:20.941Z,8.13
2018-05-09T16:54:49.568Z,7.93
2018-05-09T16:57:20.776Z,8.60
2018-05-09T16:59:49.460Z,9.07
2018-05-09T17:02:17.958Z,7.77
2018-05-09T17:04:46.454Z,6.97
2018-05-09T17:07:15.022Z,8.50
2018-05-09T17:09:43.746Z,7.90
2018-05-09T17:12:12.258Z,10.20
2018-05-09T17:14:40.671Z,12.90
2018-05-09T17:17:10.002Z,9.53
2018-05-09T17:19:38.226Z,8.63
2018-05-09T17:22:23.284Z,6.53
2018-05-09T17:24:51.789Z,10.00
2018-05-09T17:27:22.032Z,8.83
2018-05-09T17:29:50.431Z,7.97
2018-05-09T17:32:18.946Z,7.87
2018-05-09T17:34:47.628Z,10.37
2018-05-09T17:37:16.061Z,8.47
2018-05-09T17:39:44.510Z,9.83
2018-05-09T17:42:13.008Z,8.10
2018-05-09T17:44:41.359Z,9.20
2018-05-09T17:47:10.002Z,8.10
2018-05-09T17:49:38.467Z,10.07
2018-05-09T17:52:06.963Z,9.97
2018-05-09T17:54:35.451Z,8.20
2018-05-09T17:57:03.603Z,7.90
2018-05-09T17:59:32.106Z,10.37
2018-05-09T18:02:01.383Z,11.43
2018-05-09T18:04:29.943Z,11.63
2018-05-09T18:06:58.469Z,12.97
2018-05-09T18:09:26.939Z,7.70
2018-05-09T18:11:55.445Z,10.70
2018-05-09T18:14:23.934Z,6.90
2018-05-09T18:16:52.476Z,9.70
2018-05-09T18:19:21.652Z,10.23
2018-05-09T18:21:50.410Z,10.97
2018-05-09T18:24:18.950Z,7.43
2018-05-09T18:26:47.480Z,10.00
2018-05-09T18:29:15.972Z,10.60
2018-05-09T18:31:44.486Z,10.10
2018-05-09T18:34:12.924Z,16.17
2018-05-09T18:36:41.600Z,30.83
2018-05-09T18:39:12.692Z,37.87
2018-05-09T18:41:43.294Z,47.23
2018-05-09T18:44:16.874Z,45.53
2018-05-09T18:46:47.486Z,42.53
2018-05-09T18:49:16.581Z,49.70
2018-05-09T18:51:49.287Z,42.90
2018-05-09T18:54:18.927Z,48.87
2018-05-09T18:56:50.599Z,47.67
2018-05-09T18:59:22.173Z,42.23
2018-05-09T19:01:51.531Z,48.73
2018-05-09T19:04:20.852Z,43.00
2018-05-09T19:06:50.286Z,39.43
2018-05-09T19:09:18.874Z,46.87
2018-05-09T19:11:47.327Z,42.60
2018-05-09T19:14:26.608Z,40.43
2018-05-09T19:16:55.073Z,35.90
2018-05-09T19:19:24.321Z,38.93
2018-05-09T19:21:52.799Z,40.60
2018-05-09T19:24:21.239Z,33.30
2018-05-09T19:26:49.725Z,48.93
2018-05-09T19:29:18.176Z,36.77
2018-05-09T19:31:46.575Z,36.43
2018-05-09T19:34:15.911Z,37.67
2018-05-09T19:36:44.426Z,36.63
2018-05-09T19:39:17.096Z,32.23
2018-05-09T19:41:46.794Z,38.70
2018-05-09T19:44:16.349Z,33.23
2018-05-09T19:46:47.410Z,43.37
2018-05-09T19:49:20.631Z,37.43
2018-05-09T19:51:49.394Z,42.50
2018-05-09T19:54:17.866Z,36.63
2018-05-09T19:56:46.320Z,37.73
2018-05-09T19:59:20.064Z,40.37
2018-05-09T20:01:48.991Z,38.27
2018-05-09T20:04:20.330Z,44.40
2018-05-09T20:06:49.035Z,36.80
2018-05-09T20:09:20.087Z,36.37
2018-05-09T20:11:50.258Z,34.10
2018-05-09T20:14:20.054Z,32.17
2018-05-09T20:16:48.536Z,39.13
2018-05-09T20:19:17.787Z,34.10
2018-05-09T20:21:46.246Z,36.80
2018-05-09T20:24:15.495Z,29.43
2018-05-09T20:26:43.960Z,38.43
2018-05-09T20:29:12.398Z,34.30
2018-05-09T20:31:57.095Z,28.47
2018-05-09T20:34:25.841Z,33.27
2018-05-09T20:36:55.287Z,32.43
2018-05-09T20:39:23.719Z,35.20
2018-05-09T20:41:52.252Z,31.50
2018-05-09T20:44:20.746Z,29.33
2018-05-09T20:46:48.917Z,33.23
2018-05-09T20:49:18.359Z,31.37
2018-05-09T20:51:52.050Z,31.87
2018-05-09T20:54:20.578Z,32.23
2018-05-09T20:56:49.317Z,34.00
2018-05-09T20:59:18.781Z,33.87
2018-05-09T21:01:52.013Z,35.23
2018-05-09T21:04:24.074Z,30.40
2018-05-09T21:06:52.686Z,32.57
2018-05-09T21:09:21.189Z,30.33
2018-05-09T21:12:00.968Z,33.43
2018-05-09T21:14:29.261Z,30.53
2018-05-09T21:16:57.620Z,32.73
2018-05-09T21:19:31.278Z,27.17
2018-05-09T21:21:59.813Z,35.57
2018-05-09T21:24:28.313Z,34.23
2018-05-09T21:26:59.687Z,34.80
2018-05-09T21:29:28.182Z,34.83
2018-05-09T21:31:56.703Z,36.37
2018-05-09T21:34:26.740Z,34.33
2018-05-09T21:36:55.375Z,31.30
2018-05-09T21:39:23.815Z,34.43
2018-05-09T21:41:52.241Z,34.53
2018-05-09T21:44:22.391Z,36.90
2018-05-09T21:46:51.854Z,45.30
2018-05-09T21:49:21.788Z,36.97
2018-05-09T21:51:50.229Z,41.83
2018-05-09T21:54:20.827Z,45.33
2018-05-09T21:56:49.520Z,36.83
2018-05-09T21:59:17.966Z,42.23
2018-05-09T22:01:46.451Z,34.53
2018-05-09T22:04:14.997Z,39.93
2018-05-09T22:06:43.469Z,41.30
2018-05-09T22:09:11.729Z,40.60
2018-05-09T22:11:39.978Z,42.33
2018-05-09T22:14:08.479Z,39.00
2018-05-09T22:16:37.338Z,39.30
2018-05-09T22:19:06.903Z,39.50
2018-05-09T22:21:35.856Z,37.07
2018-05-09T22:24:05.431Z,35.47
2018-05-09T22:26:33.971Z,37.33
2018-05-09T22:29:02.405Z,33.57
2018-05-09T22:31:30.843Z,38.70
2018-05-09T22:33:59.339Z,34.30
2018-05-09T22:36:27.810Z,36.83
2018-05-09T22:38:57.037Z,35.57
2018-05-09T22:41:25.240Z,38.10
2018-05-09T22:43:53.690Z,35.73
2018-05-09T22:46:22.097Z,38.80
2018-05-09T22:48:50.546Z,45.90
2018-05-09T22:51:18.985Z,36.40
2018-05-09T22:53:48.209Z,38.37
2018-05-09T22:56:16.626Z,33.50
2018-05-09T22:58:45.094Z,35.80
2018-05-09T23:01:14.470Z,32.63
2018-05-09T23:03:42.978Z,32.40
2018-05-09T23:06:12.337Z,33.47
2018-05-09T23:08:41.290Z,37.70
2018-05-09T23:11:09.862Z,31.77
2018-05-09T23:13:38.437Z,34.80
2018-05-09T23:16:06.966Z,38.53
2018-05-09T23:18:36.320Z,38.50
2018-05-09T23:21:04.830Z,34.27
2018-05-09T23:23:33.228Z,35.47
2018-05-09T23:26:01.754Z,40.00
2018-05-09T23:28:29.988Z,29.27
2018-05-09T23:30:59.296Z,33.57
2018-05-09T23:33:27.806Z,41.87
2018-05-09T23:35:56.477Z,34.60
2018-05-09T23:38:25.002Z,36.47
2018-05-09T23:40:53.515Z,39.70
2018-05-09T23:43:22.063Z,40.30
2018-05-09T23:45:50.659Z,37.57
2018-05-09T23:48:18.902Z,35.83
2018-05-09T23:50:47.078Z,46.47
2018-05-09T23:53:15.497Z,48.43
2018-05-09T23:55:43.986Z,40.60
2018-05-09T23:58:12.566Z,43.33
